createdAt,value
2022-11-29T00:01:58.580Z,-12.11
2022-11-29T00:04:27.832Z,-12.12
2022-11-29T00:06:56.844Z,-12.23
2022-11-29T00:09:26.365Z,-12.32
2022-11-29T00:12:13.892Z,-12.33
2022-11-29T00:14:43.808Z,-12.32
2022-11-29T00:17:13.302Z,-12.33
2022-11-29T00:19:42.732Z,-12.38
2022-11-29T00:22:11.875Z,-12.43
2022-11-29T00:24:41.386Z,-12.47
2022-11-29T00:27:10.792Z,-12.50
2022-11-29T00:29:39.765Z,-12.48
2022-11-29T00:32:08.965Z,-12.37
2022-11-29T00:34:39.002Z,-12.35
2022-11-29T00:37:08.131Z,-12.37
2022-11-29T00:39:37.603Z,-12.33
2022-11-29T00:42:06.736Z,-12.29
2022-11-29T00:44:35.899Z,-12.33
2022-11-29T00:47:05.453Z,-12.38
2022-11-29T00:49:34.549Z,-12.39
2022-11-29T00:52:03.588Z,-12.39
2022-11-29T00:54:32.886Z,-12.36
2022-11-29T00:57:02.090Z,-12.33
2022-11-29T00:59:31.555Z,-12.42
2022-11-29T01:02:00.653Z,-12.49
2022-11-29T01:04:29.597Z,-12.45
2022-11-29T01:06:58.551Z,-12.45
2022-11-29T01:09:27.617Z,-12.46
2022-11-29T01:11:56.715Z,-12.48
2022-11-29T01:14:26.074Z,-12.52
2022-11-29T01:16:55.364Z,-12.49
2022-11-29T01:19:24.425Z,-12.48
2022-11-29T01:21:53.486Z,-12.49
2022-11-29T01:24:23.638Z,-12.51
2022-11-29T01:26:52.886Z,-12.51
2022-11-29T01:29:21.756Z,-12.52
2022-11-29T01:31:50.783Z,-12.61
2022-11-29T01:34:19.916Z,-12.67
2022-11-29T01:36:49.110Z,-12.60
2022-11-29T01:39:18.275Z,-12.62
2022-11-29T01:41:47.458Z,-12.64
2022-11-29T01:44:16.533Z,-12.65
2022-11-29T01:46:48.854Z,-12.69
2022-11-29T01:49:40.477Z,-12.76
2022-11-29T01:52:33.420Z,-12.79
2022-11-29T01:55:08.127Z,-12.86
2022-11-29T01:57:41.730Z,-12.90
2022-11-29T02:00:19.399Z,-12.97
2022-11-29T02:03:05.206Z,-12.98
2022-11-29T02:05:35.152Z,-12.96
2022-11-29T02:08:05.008Z,-13.00
2022-11-29T02:10:51.554Z,-13.08
2022-11-29T02:13:49.465Z,-13.11
2022-11-29T02:16:31.022Z,-13.12
2022-11-29T02:19:28.418Z,-13.26
2022-11-29T02:22:34.576Z,-13.30
2022-11-29T02:25:18.422Z,-13.33
2022-11-29T02:28:35.265Z,-13.38
2022-11-29T02:31:24.941Z,-13.60
2022-11-29T02:34:31.107Z,-13.65
2022-11-29T02:37:36.292Z,-13.78
2022-11-29T02:40:38.675Z,-13.88
2022-11-29T02:43:46.407Z,-13.91
2022-11-29T02:46:48.352Z,-14.01
2022-11-29T02:50:00.358Z,-14.14
2022-11-29T02:52:54.403Z,-14.30
2022-11-29T02:55:42.913Z,-14.34
2022-11-29T02:58:28.424Z,-14.43
2022-11-29T03:02:06.269Z,-14.40
2022-11-29T03:05:03.136Z,-14.36
2022-11-29T03:08:04.654Z,-14.39
2022-11-29T03:11:29.276Z,-14.44
2022-11-29T03:14:16.706Z,-14.43
2022-11-29T03:17:19.508Z,-14.44
2022-11-29T03:20:25.131Z,-14.46
2022-11-29T03:23:51.212Z,-14.45
2022-11-29T03:26:46.559Z,-14.40
2022-11-29T03:29:34.361Z,-14.45
2022-11-29T03:32:36.490Z,-14.44
2022-11-29T03:35:34.449Z,-14.50
2022-11-29T03:38:28.097Z,-14.60
2022-11-29T03:41:21.438Z,-14.72
2022-11-29T03:44:14.586Z,-14.71
2022-11-29T03:47:25.418Z,-14.68
2022-11-29T03:50:06.720Z,-14.70
2022-11-29T03:52:57.515Z,-14.70
2022-11-29T03:56:00.185Z,-14.65
2022-11-29T03:58:51.932Z,-14.73
2022-11-29T04:01:36.937Z,-14.76
2022-11-29T04:04:21.967Z,-14.80
2022-11-29T04:07:14.854Z,-14.97
2022-11-29T04:10:05.413Z,-15.00
2022-11-29T04:13:10.564Z,-15.01
2022-11-29T04:16:16.363Z,-15.01
2022-11-29T04:19:08.521Z,-14.99
2022-11-29T04:22:20.996Z,-15.05
2022-11-29T04:25:09.040Z,-15.24
2022-11-29T04:27:50.597Z,-15.35
2022-11-29T04:30:29.426Z,-15.51
2022-11-29T04:33:45.926Z,-15.62
2022-11-29T04:36:39.924Z,-15.62
2022-11-29T04:39:29.472Z,-15.70
2022-11-29T04:42:22.165Z,-15.62
2022-11-29T04:45:06.439Z,-15.62
2022-11-29T04:48:34.126Z,-15.66
2022-11-29T04:51:31.277Z,-15.63
2022-11-29T04:54:24.452Z,-15.59
2022-11-29T04:57:14.336Z,-15.53
2022-11-29T05:00:07.548Z,-15.58
2022-11-29T05:02:49.780Z,-15.69
2022-11-29T05:05:45.229Z,-15.78
2022-11-29T05:08:40.228Z,-15.75
2022-11-29T05:11:44.869Z,-15.69
2022-11-29T05:15:06.759Z,-15.86
2022-11-29T05:18:30.938Z,-15.98
2022-11-29T05:21:20.787Z,-16.08
2022-11-29T05:24:00.999Z,-16.12
2022-11-29T05:27:18.407Z,-16.04
2022-11-29T05:30:12.437Z,-16.05
2022-11-29T05:32:56.567Z,-16.09
2022-11-29T05:35:52.431Z,-16.08
2022-11-29T05:39:07.079Z,-16.10
2022-11-29T05:41:53.810Z,-16.07
2022-11-29T05:44:40.625Z,-16.00
2022-11-29T05:47:16.270Z,-16.04
2022-11-29T05:50:06.959Z,-16.03
2022-11-29T05:52:50.458Z,-15.93
2022-11-29T05:55:47.309Z,-15.97
2022-11-29T05:58:30.528Z,-16.00
2022-11-29T06:01:23.264Z,-16.09
2022-11-29T06:04:15.319Z,-16.01
2022-11-29T06:07:08.425Z,-16.08
2022-11-29T06:12:38.614Z,-16.13
2022-11-29T06:15:59.268Z,-16.13
2022-11-29T06:18:43.316Z,-15.98
2022-11-29T06:21:37.857Z,-16.06
2022-11-29T06:24:51.838Z,-16.13
2022-11-29T06:27:38.786Z,-16.14
2022-11-29T06:30:17.513Z,-16.30
2022-11-29T06:33:18.285Z,-16.44
2022-11-29T06:36:30.283Z,-16.43
2022-11-29T06:38:59.783Z,-16.59
2022-11-29T06:41:29.576Z,-16.68
2022-11-29T06:43:59.167Z,-16.68
2022-11-29T06:46:31.954Z,-16.66
2022-11-29T06:49:28.409Z,-16.77
2022-11-29T06:52:24.416Z,-16.84
2022-11-29T06:55:49.840Z,-16.96
2022-11-29T06:58:36.179Z,-16.99
2022-11-29T07:01:45.509Z,-17.07
2022-11-29T07:04:40.046Z,-17.13
2022-11-29T07:07:27.956Z,-17.20
2022-11-29T07:10:00.718Z,-17.40
2022-11-29T07:12:30.373Z,-17.54
2022-11-29T07:15:00.131Z,-17.41
2022-11-29T07:17:59.841Z,-17.24
2022-11-29T07:21:24.190Z,-17.12
2022-11-29T07:24:20.645Z,-17.11
2022-11-29T07:27:29.217Z,-17.18
2022-11-29T07:30:22.193Z,-17.14
2022-11-29T07:33:46.003Z,-17.12
2022-11-29T07:37:02.712Z,-17.15
2022-11-29T07:40:14.919Z,-17.27
2022-11-29T07:43:11.262Z,-17.25
2022-11-29T07:45:42.137Z,-17.27
2022-11-29T07:48:15.066Z,-17.23
2022-11-29T07:50:47.084Z,-17.22
2022-11-29T07:53:23.043Z,-17.28
2022-11-29T07:55:52.728Z,-17.43
2022-11-29T07:58:22.325Z,-17.46
2022-11-29T08:00:51.468Z,-17.50
2022-11-29T08:03:20.621Z,-17.50
2022-11-29T08:05:49.922Z,-17.49
2022-11-29T08:08:19.940Z,-17.51
2022-11-29T08:10:49.456Z,-17.71
2022-11-29T08:13:22.536Z,-17.90
2022-11-29T08:15:52.126Z,-18.03
2022-11-29T08:18:21.342Z,-18.04
2022-11-29T08:20:50.533Z,-18.19
2022-11-29T08:23:19.484Z,-18.34
2022-11-29T08:25:49.527Z,-18.42
2022-11-29T08:28:19.096Z,-18.46
2022-11-29T08:30:48.160Z,-18.59
2022-11-29T08:33:17.292Z,-18.64
2022-11-29T08:35:46.737Z,-18.62
2022-11-29T08:38:15.938Z,-18.61
2022-11-29T08:40:44.980Z,-18.54
2022-11-29T08:43:14.817Z,-18.60
2022-11-29T08:45:43.893Z,-18.64
2022-11-29T08:48:15.696Z,-18.58
2022-11-29T08:50:44.882Z,-18.60
2022-11-29T08:53:32.622Z,-18.66
2022-11-29T08:56:12.024Z,-18.77
2022-11-29T08:58:51.898Z,-18.77
2022-11-29T09:01:21.919Z,-18.67
2022-11-29T09:04:08.732Z,-18.60
2022-11-29T09:06:46.699Z,-18.66
2022-11-29T09:09:15.847Z,-18.66
2022-11-29T09:11:49.224Z,-18.59
2022-11-29T09:14:19.630Z,-18.63
2022-11-29T09:16:48.686Z,-18.62
2022-11-29T09:19:18.513Z,-18.68
2022-11-29T09:21:47.604Z,-18.81
2022-11-29T09:24:17.284Z,-18.77
2022-11-29T09:26:49.365Z,-18.81
2022-11-29T09:29:19.785Z,-18.98
2022-11-29T09:31:49.085Z,-19.02
2022-11-29T09:34:22.842Z,-19.11
2022-11-29T09:36:51.753Z,-19.24
2022-11-29T09:39:20.999Z,-19.31
2022-11-29T09:42:16.236Z,-19.33
2022-11-29T09:44:57.591Z,-19.23
2022-11-29T09:47:54.807Z,-19.10
2022-11-29T09:50:49.775Z,-19.10
2022-11-29T09:53:30.864Z,-19.18
2022-11-29T09:56:32.642Z,-19.22
2022-11-29T09:59:13.925Z,-19.24
2022-11-29T10:01:54.420Z,-19.43
2022-11-29T10:04:31.405Z,-19.54
2022-11-29T10:07:18.023Z,-19.68
2022-11-29T10:10:03.175Z,-19.85
2022-11-29T10:13:01.926Z,-19.91
2022-11-29T10:15:41.659Z,-19.89
2022-11-29T10:18:37.500Z,-19.91
2022-11-29T10:21:30.060Z,-20.04
2022-11-29T10:24:12.544Z,-20.15
2022-11-29T10:26:44.574Z,-20.13
2022-11-29T10:29:18.166Z,-20.20
2022-11-29T10:31:50.795Z,-20.27
2022-11-29T10:34:25.144Z,-20.40
2022-11-29T10:37:03.876Z,-20.50
2022-11-29T10:40:14.594Z,-20.52
2022-11-29T10:42:50.377Z,-20.46
2022-11-29T10:45:22.921Z,-20.44
2022-11-29T10:47:56.807Z,-20.29
2022-11-29T10:50:34.818Z,-20.12
2022-11-29T10:53:13.193Z,-20.32
2022-11-29T10:56:17.142Z,-20.47
2022-11-29T10:59:10.493Z,-20.54
2022-11-29T11:01:44.134Z,-20.62
2022-11-29T11:04:48.500Z,-20.63
2022-11-29T11:07:37.492Z,-20.70
2022-11-29T11:10:31.955Z,-20.86
2022-11-29T11:13:21.869Z,-20.97
2022-11-29T11:15:51.324Z,-21.14
2022-11-29T11:18:27.900Z,-21.26
2022-11-29T11:21:05.997Z,-21.19
2022-11-29T11:23:42.752Z,-21.19
2022-11-29T11:26:16.915Z,-20.97
2022-11-29T11:29:01.201Z,-20.78
2022-11-29T11:31:40.973Z,-20.65
2022-11-29T11:34:30.583Z,-20.51
2022-11-29T11:37:18.668Z,-20.42
2022-11-29T11:39:51.936Z,-20.57
2022-11-29T11:42:39.189Z,-20.75
2022-11-29T11:45:13.985Z,-20.94
2022-11-29T11:48:00.403Z,-21.09
2022-11-29T11:50:41.788Z,-21.19
2022-11-29T11:53:26.580Z,-21.34
2022-11-29T11:56:12.419Z,-21.54
2022-11-29T11:58:53.336Z,-21.66
2022-11-29T12:01:41.546Z,-21.75
2022-11-29T12:04:27.293Z,-21.82
2022-11-29T12:07:51.954Z,-21.93
2022-11-29T12:10:26.845Z,-21.78
2022-11-29T12:12:58.716Z,-21.61
2022-11-29T12:15:41.814Z,-21.48
2022-11-29T12:18:32.304Z,-21.44
2022-11-29T12:21:28.904Z,-21.38
2022-11-29T12:24:48.025Z,-21.65
2022-11-29T12:27:17.562Z,-21.66
2022-11-29T12:29:46.854Z,-21.45
2022-11-29T12:32:56.591Z,-21.40
2022-11-29T12:35:54.771Z,-21.73
2022-11-29T12:39:06.823Z,-22.11
2022-11-29T12:42:02.948Z,-22.32
2022-11-29T12:45:02.016Z,-22.08
2022-11-29T12:47:55.057Z,-21.82
2022-11-29T12:50:31.941Z,-21.61
2022-11-29T12:53:23.986Z,-21.52
2022-11-29T12:56:43.126Z,-21.53
2022-11-29T12:59:47.402Z,-21.63
2022-11-29T13:02:50.907Z,-21.60
2022-11-29T13:05:57.651Z,-21.54
2022-11-29T13:08:50.784Z,-21.55
2022-11-29T13:11:31.896Z,-21.57
2022-11-29T13:14:41.097Z,-21.57
2022-11-29T13:17:12.889Z,-21.67
2022-11-29T13:19:57.328Z,-21.67
2022-11-29T13:22:52.214Z,-21.70
2022-11-29T13:25:30.626Z,-21.73
2022-11-29T13:28:12.313Z,-21.73
2022-11-29T13:30:42.303Z,-21.67
2022-11-29T13:33:32.647Z,-21.57
2022-11-29T13:36:34.789Z,-21.51
2022-11-29T13:39:38.336Z,-21.64
2022-11-29T13:42:25.285Z,-21.77
2022-11-29T13:45:25.549Z,-21.75
2022-11-29T13:48:01.259Z,-21.76
2022-11-29T13:50:43.527Z,-21.97
2022-11-29T13:53:25.589Z,-22.33
2022-11-29T13:56:02.837Z,-22.46
2022-11-29T13:58:40.571Z,-22.69
2022-11-29T14:01:15.571Z,-22.74
2022-11-29T14:04:03.113Z,-22.74
2022-11-29T14:06:42.445Z,-22.91
2022-11-29T14:09:48.897Z,-23.00
2022-11-29T14:12:37.867Z,-23.03
2022-11-29T14:15:32.696Z,-23.02
2022-11-29T14:18:10.547Z,-22.94
2022-11-29T14:20:45.128Z,-22.91
2022-11-29T14:23:41.686Z,-22.88
2022-11-29T14:26:10.915Z,-22.93
2022-11-29T14:28:43.074Z,-23.02
2022-11-29T14:31:12.556Z,-23.03
2022-11-29T14:34:17.916Z,-23.06
2022-11-29T14:37:08.323Z,-23.08
2022-11-29T14:39:50.530Z,-23.07
2022-11-29T14:42:26.728Z,-23.08
2022-11-29T14:45:05.661Z,-23.06
2022-11-29T14:47:51.119Z,-23.08
2022-11-29T14:50:39.962Z,-23.25
2022-11-29T14:53:31.696Z,-23.39
2022-11-29T14:56:31.879Z,-23.50
2022-11-29T14:59:49.590Z,-23.43
2022-11-29T15:02:57.786Z,-23.33
2022-11-29T15:05:49.139Z,-23.31
2022-11-29T15:09:22.202Z,-23.35
2022-11-29T15:12:03.354Z,-23.39
2022-11-29T15:15:02.966Z,-23.33
2022-11-29T15:17:57.329Z,-23.31
2022-11-29T15:20:46.772Z,-23.28
2022-11-29T15:23:21.310Z,-23.13
2022-11-29T15:25:55.473Z,-23.03
2022-11-29T15:28:30.261Z,-22.95
2022-11-29T15:31:11.188Z,-22.89
2022-11-29T15:33:47.518Z,-22.87
2022-11-29T15:36:23.994Z,-22.96
2022-11-29T15:38:56.937Z,-22.95
2022-11-29T15:41:36.585Z,-22.90
2022-11-29T15:44:08.772Z,-22.95
2022-11-29T15:46:38.253Z,-23.01
2022-11-29T15:49:33.201Z,-23.08
2022-11-29T15:52:14.439Z,-23.00
2022-11-29T15:54:56.797Z,-22.98
2022-11-29T15:57:43.918Z,-23.02
2022-11-29T16:00:24.264Z,-23.00
2022-11-29T16:03:05.788Z,-22.96
2022-11-29T16:05:39.276Z,-22.87
2022-11-29T16:08:22.395Z,-22.88
2022-11-29T16:10:54.403Z,-22.85
2022-11-29T16:13:44.246Z,-22.94
2022-11-29T16:16:22.869Z,-23.01
2022-11-29T16:18:53.090Z,-23.02
2022-11-29T16:21:28.830Z,-22.99
2022-11-29T16:23:59.735Z,-23.00
2022-11-29T16:26:39.549Z,-23.06
2022-11-29T16:29:22.441Z,-23.10
2022-11-29T16:31:52.306Z,-23.06
2022-11-29T16:34:27.480Z,-23.10
2022-11-29T16:37:20.637Z,-23.16
2022-11-29T16:39:54.437Z,-23.16
2022-11-29T16:42:29.300Z,-23.14
2022-11-29T16:45:24.750Z,-23.05
2022-11-29T16:48:01.675Z,-22.93
2022-11-29T16:50:35.941Z,-22.81
2022-11-29T16:53:41.259Z,-22.78
2022-11-29T16:56:18.555Z,-22.79
2022-11-29T16:59:25.666Z,-22.76
2022-11-29T17:01:47.286Z,-22.65
2022-11-29T17:04:24.418Z,-22.50
2022-11-29T17:06:58.796Z,-22.41
2022-11-29T17:09:35.665Z,-22.42
2022-11-29T17:12:05.040Z,-22.49
2022-11-29T17:14:34.441Z,-22.52
2022-11-29T17:17:03.489Z,-22.51
2022-11-29T17:19:33.307Z,-22.43
2022-11-29T17:22:02.759Z,-22.33
2022-11-29T17:24:32.055Z,-22.22
2022-11-29T17:27:01.147Z,-22.13
2022-11-29T17:29:30.457Z,-22.05
2022-11-29T17:31:59.924Z,-22.00
2022-11-29T17:34:28.861Z,-21.91
2022-11-29T17:36:58.458Z,-21.94
2022-11-29T17:39:27.720Z,-21.96
2022-11-29T17:41:56.786Z,-21.95
2022-11-29T17:44:25.875Z,-21.87
2022-11-29T17:46:55.000Z,-21.79
2022-11-29T17:49:24.137Z,-21.75
2022-11-29T17:51:53.774Z,-21.68
2022-11-29T17:54:26.148Z,-21.60
2022-11-29T17:56:56.473Z,-21.56
2022-11-29T17:59:25.775Z,-21.51
2022-11-29T18:01:57.378Z,-21.50
2022-11-29T18:04:26.671Z,-21.45
2022-11-29T18:06:55.781Z,-21.40
2022-11-29T18:09:24.863Z,-21.34
2022-11-29T18:11:54.045Z,-21.25
2022-11-29T18:14:25.096Z,-21.16
2022-11-29T18:16:54.389Z,-21.11
2022-11-29T18:19:25.065Z,-21.07
2022-11-29T18:21:54.305Z,-20.98
2022-11-29T18:24:23.440Z,-20.94
2022-11-29T18:26:52.801Z,-20.83
2022-11-29T18:29:22.506Z,-20.81
2022-11-29T18:31:51.849Z,-20.72
2022-11-29T18:34:20.997Z,-20.67
2022-11-29T18:36:50.886Z,-20.62
2022-11-29T18:39:24.412Z,-20.53
2022-11-29T18:41:53.781Z,-20.53
2022-11-29T18:44:30.320Z,-20.49
2022-11-29T18:46:59.794Z,-20.40
2022-11-29T18:49:28.840Z,-20.33
2022-11-29T18:51:58.242Z,-20.26
2022-11-29T18:54:27.436Z,-20.21
2022-11-29T18:56:56.654Z,-20.15
2022-11-29T18:59:26.023Z,-20.08
2022-11-29T19:01:54.984Z,-20.01
2022-11-29T19:04:24.507Z,-19.93
2022-11-29T19:06:53.805Z,-19.85
2022-11-29T19:09:25.536Z,-19.75
2022-11-29T19:11:54.858Z,-19.69
2022-11-29T19:14:23.874Z,-19.60
2022-11-29T19:16:53.050Z,-19.55
2022-11-29T19:19:22.132Z,-19.52
2022-11-29T19:21:51.304Z,-19.49
2022-11-29T19:24:21.042Z,-19.45
2022-11-29T19:26:50.902Z,-19.43
2022-11-29T19:29:19.891Z,-19.37
2022-11-29T19:31:49.113Z,-19.25
2022-11-29T19:34:18.346Z,-19.16
2022-11-29T19:36:47.503Z,-19.07
2022-11-29T19:39:18.619Z,-19.01
2022-11-29T19:41:49.562Z,-18.90
2022-11-29T19:44:18.627Z,-18.78
2022-11-29T19:46:50.101Z,-18.72
2022-11-29T19:49:19.149Z,-18.69
2022-11-29T19:51:48.495Z,-18.69
2022-11-29T19:54:17.800Z,-18.65
2022-11-29T19:56:47.017Z,-18.60
2022-11-29T19:59:16.354Z,-18.56
2022-11-29T20:01:45.501Z,-18.47
2022-11-29T20:04:17.857Z,-18.40
2022-11-29T20:06:47.542Z,-18.32
2022-11-29T20:09:19.624Z,-18.25
2022-11-29T20:11:48.819Z,-18.16
2022-11-29T20:14:18.177Z,-18.10
2022-11-29T20:16:47.493Z,-18.03
2022-11-29T20:19:19.001Z,-17.98
2022-11-29T20:21:51.273Z,-17.94
2022-11-29T20:24:21.168Z,-17.86
2022-11-29T20:26:51.407Z,-17.76
2022-11-29T20:29:21.035Z,-17.67
2022-11-29T20:31:51.343Z,-17.59
2022-11-29T20:34:22.054Z,-17.52
2022-11-29T20:37:09.486Z,-17.46
2022-11-29T20:40:10.804Z,-17.40
2022-11-29T20:42:55.281Z,-17.37
2022-11-29T20:45:25.798Z,-17.29
2022-11-29T20:48:21.710Z,-17.24
2022-11-29T20:51:03.964Z,-17.19
2022-11-29T20:53:39.663Z,-17.13
2022-11-29T20:56:11.070Z,-17.08
2022-11-29T20:58:43.387Z,-16.99
2022-11-29T21:01:12.646Z,-16.90
2022-11-29T21:03:42.235Z,-16.80
2022-11-29T21:06:11.533Z,-16.71
2022-11-29T21:08:40.717Z,-16.65
2022-11-29T21:11:12.011Z,-16.57
2022-11-29T21:13:41.771Z,-16.50
2022-11-29T21:16:13.966Z,-16.41
2022-11-29T21:18:43.597Z,-16.31
2022-11-29T21:21:26.825Z,-16.20
2022-11-29T21:24:55.132Z,-16.12
2022-11-29T21:27:34.009Z,-16.10
2022-11-29T21:30:07.240Z,-16.05
2022-11-29T21:32:37.182Z,-16.02
2022-11-29T21:35:06.490Z,-15.95
2022-11-29T21:37:35.464Z,-15.93
2022-11-29T21:40:05.450Z,-15.98
2022-11-29T21:42:34.549Z,-16.00
2022-11-29T21:45:06.507Z,-15.96
2022-11-29T21:47:38.270Z,-15.88
2022-11-29T21:50:08.385Z,-15.84
2022-11-29T21:52:37.517Z,-15.79
2022-11-29T21:55:07.624Z,-15.77
2022-11-29T21:57:36.976Z,-15.76
2022-11-29T22:00:07.625Z,-15.74
2022-11-29T22:02:36.861Z,-15.75
2022-11-29T22:05:06.308Z,-15.72
2022-11-29T22:07:35.694Z,-15.71
2022-11-29T22:10:12.941Z,-15.69
2022-11-29T22:12:51.248Z,-15.70
2022-11-29T22:15:24.844Z,-15.69
2022-11-29T22:17:54.713Z,-15.61
2022-11-29T22:20:24.121Z,-15.65
2022-11-29T22:22:58.452Z,-15.54
2022-11-29T22:25:27.969Z,-15.44
2022-11-29T22:27:57.108Z,-15.37
2022-11-29T22:30:26.299Z,-15.26
2022-11-29T22:32:58.502Z,-15.21
2022-11-29T22:35:27.686Z,-15.24
2022-11-29T22:37:57.405Z,-15.26
2022-11-29T22:40:26.596Z,-15.20
2022-11-29T22:42:55.830Z,-15.10
2022-11-29T22:45:24.945Z,-15.04
2022-11-29T22:47:54.082Z,-15.04
2022-11-29T22:50:23.235Z,-15.04
2022-11-29T22:52:54.511Z,-15.01
2022-11-29T22:55:23.519Z,-14.98
2022-11-29T22:57:55.714Z,-14.94
2022-11-29T23:00:25.079Z,-14.94
2022-11-29T23:02:59.015Z,-14.92
2022-11-29T23:05:32.284Z,-14.84
2022-11-29T23:08:02.049Z,-14.78
2022-11-29T23:10:31.341Z,-14.84
2022-11-29T23:13:00.523Z,-14.92
2022-11-29T23:15:29.540Z,-14.92
2022-11-29T23:17:58.734Z,-14.88
2022-11-29T23:20:27.714Z,-14.85
2022-11-29T23:22:57.029Z,-14.84
2022-11-29T23:25:26.201Z,-14.79
2022-11-29T23:27:57.398Z,-14.79
2022-11-29T23:30:26.663Z,-14.74
2022-11-29T23:32:55.687Z,-14.71
2022-11-29T23:35:24.925Z,-14.71
2022-11-29T23:37:53.983Z,-14.62
2022-11-29T23:40:23.118Z,-14.60
2022-11-29T23:42:55.298Z,-14.69
2022-11-29T23:45:24.347Z,-14.83
2022-11-29T23:47:53.705Z,-14.86
2022-11-29T23:50:23.070Z,-14.93
2022-11-29T23:52:58.444Z,-15.02
2022-11-29T23:55:28.382Z,-15.12
2022-11-29T23:57:57.663Z,-15.21
